sensor_id;sensor_type;location;lat;lon;timestamp;pressure;altitude;pressure_sealevel;temperature;humidity
62164;BME280;48149;51.132;7.178;2023-03-04T00:00:07;99486.69;;;16.44;37.30
62164;BME280;48149;51.132;7.178;2023-03-04T00:02:33;99495.34;;;15.98;38.47
62164;BME280;48149;51.132;7.178;2023-03-04T00:04:58;99492.56;;;15.81;38.46
62164;BME280;48149;51.132;7.178;2023-03-04T00:07:23;99492.13;;;16.08;38.69
62164;BME280;48149;51.132;7.178;2023-03-04T00:09:48;99492.13;;;15.96;38.12
62164;BME280;48149;51.132;7.178;2023-03-04T00:12:14;99483.94;;;15.08;39.93
62164;BME280;48149;51.132;7.178;2023-03-04T00:14:39;99490.13;;;15.80;39.79
62164;BME280;48149;51.132;7.178;2023-03-04T00:17:05;99491.88;;;15.86;39.47
62164;BME280;48149;51.132;7.178;2023-03-04T00:19:31;99488.72;;;15.66;39.37
62164;BME280;48149;51.132;7.178;2023-03-04T00:21:56;99486.56;;;15.08;40.11
62164;BME280;48149;51.132;7.178;2023-03-04T00:24:21;99484.81;;;15.20;40.19
62164;BME280;48149;51.132;7.178;2023-03-04T00:26:46;99486.81;;;15.55;39.94
62164;BME280;48149;51.132;7.178;2023-03-04T00:29:12;99483.50;;;15.89;39.28
62164;BME280;48149;51.132;7.178;2023-03-04T00:31:37;99475.91;;;15.92;38.64
62164;BME280;48149;51.132;7.178;2023-03-04T00:34:02;99472.88;;;16.30;38.54
62164;BME280;48149;51.132;7.178;2023-03-04T00:36:27;99473.91;;;16.06;38.68
62164;BME280;48149;51.132;7.178;2023-03-04T00:38:53;99478.00;;;15.61;39.03
62164;BME280;48149;51.132;7.178;2023-03-04T00:41:18;99473.44;;;15.20;40.19
62164;BME280;48149;51.132;7.178;2023-03-04T00:43:43;99467.75;;;15.82;39.83
62164;BME280;48149;51.132;7.178;2023-03-04T00:46:08;99475.09;;;15.32;40.55
62164;BME280;48149;51.132;7.178;2023-03-04T00:48:34;99467.63;;;16.42;38.65
62164;BME280;48149;51.132;7.178;2023-03-04T00:50:59;99465.94;;;15.35;39.95
62164;BME280;48149;51.132;7.178;2023-03-04T00:53:24;99469.28;;;15.60;39.28
62164;BME280;48149;51.132;7.178;2023-03-04T00:55:49;99454.84;;;15.15;39.60
62164;BME280;48149;51.132;7.178;2023-03-04T00:58:15;99464.41;;;15.75;39.66
62164;BME280;48149;51.132;7.178;2023-03-04T01:00:40;99466.69;;;15.72;39.82
62164;BME280;48149;51.132;7.178;2023-03-04T01:03:05;99460.69;;;16.06;39.30
62164;BME280;48149;51.132;7.178;2023-03-04T01:05:30;99462.75;;;16.16;39.04
62164;BME280;48149;51.132;7.178;2023-03-04T01:07:58;99462.63;;;15.58;39.36
62164;BME280;48149;51.132;7.178;2023-03-04T01:10:23;99464.84;;;16.37;38.43
62164;BME280;48149;51.132;7.178;2023-03-04T01:12:48;99463.25;;;16.59;37.89
62164;BME280;48149;51.132;7.178;2023-03-04T01:15:14;99458.28;;;16.16;38.26
62164;BME280;48149;51.132;7.178;2023-03-04T01:17:39;99461.06;;;16.56;37.90
62164;BME280;48149;51.132;7.178;2023-03-04T01:20:05;99457.94;;;16.36;38.37
62164;BME280;48149;51.132;7.178;2023-03-04T01:22:30;99456.66;;;16.27;38.24
62164;BME280;48149;51.132;7.178;2023-03-04T01:24:55;99450.25;;;16.34;38.42
62164;BME280;48149;51.132;7.178;2023-03-04T01:27:21;99450.72;;;16.31;38.34
62164;BME280;48149;51.132;7.178;2023-03-04T01:29:46;99450.91;;;16.88;37.57
62164;BME280;48149;51.132;7.178;2023-03-04T01:32:11;99450.25;;;16.34;38.68
62164;BME280;48149;51.132;7.178;2023-03-04T01:34:36;99449.81;;;16.61;38.41
62164;BME280;48149;51.132;7.178;2023-03-04T01:37:02;99440.00;;;16.49;38.34
62164;BME280;48149;51.132;7.178;2023-03-04T01:39:27;99441.78;;;17.07;37.53
62164;BME280;48149;51.132;7.178;2023-03-04T01:41:52;99434.38;;;16.81;37.54
62164;BME280;48149;51.132;7.178;2023-03-04T01:44:17;99431.97;;;16.68;38.35
62164;BME280;48149;51.132;7.178;2023-03-04T01:46:45;99430.31;;;15.85;38.78
62164;BME280;48149;51.132;7.178;2023-03-04T01:49:12;99422.91;;;16.40;38.34
62164;BME280;48149;51.132;7.178;2023-03-04T01:51:38;99423.03;;;16.22;38.36
62164;BME280;48149;51.132;7.178;2023-03-04T01:54:03;99426.03;;;16.26;38.21
62164;BME280;48149;51.132;7.178;2023-03-04T01:56:29;99423.94;;;16.51;38.14
62164;BME280;48149;51.132;7.178;2023-03-04T01:59:08;99418.88;;;16.15;38.12
62164;BME280;48149;51.132;7.178;2023-03-04T02:01:34;99424.09;;;15.68;39.15
62164;BME280;48149;51.132;7.178;2023-03-04T02:03:59;99419.41;;;14.38;41.20
62164;BME280;48149;51.132;7.178;2023-03-04T02:06:25;99411.31;;;14.58;42.04
62164;BME280;48149;51.132;7.178;2023-03-04T02:08:50;99415.28;;;15.86;40.37
62164;BME280;48149;51.132;7.178;2023-03-04T02:11:15;99415.66;;;13.78;41.15
62164;BME280;48149;51.132;7.178;2023-03-04T02:13:40;99405.63;;;14.18;42.68
62164;BME280;48149;51.132;7.178;2023-03-04T02:16:06;99405.94;;;14.82;41.55
62164;BME280;48149;51.132;7.178;2023-03-04T02:18:31;99401.56;;;15.54;39.67
62164;BME280;48149;51.132;7.178;2023-03-04T02:23:28;99415.25;;;13.74;41.22
62164;BME280;48149;51.132;7.178;2023-03-04T02:28:39;99405.09;;;15.18;41.47
62164;BME280;48149;51.132;7.178;2023-03-04T02:31:05;99408.19;;;14.97;40.58
62164;BME280;48149;51.132;7.178;2023-03-04T02:33:30;99407.66;;;15.55;40.07
62164;BME280;48149;51.132;7.178;2023-03-04T02:35:57;99407.44;;;15.56;39.25
62164;BME280;48149;51.132;7.178;2023-03-04T02:38:22;99406.09;;;13.52;43.72
62164;BME280;48149;51.132;7.178;2023-03-04T02:40:48;99398.41;;;14.86;41.04
62164;BME280;48149;51.132;7.178;2023-03-04T02:43:15;99394.84;;;14.80;40.93
62164;BME280;48149;51.132;7.178;2023-03-04T02:45:44;99391.19;;;15.11;41.34
62164;BME280;48149;51.132;7.178;2023-03-04T02:48:11;99393.25;;;15.39;39.52
62164;BME280;48149;51.132;7.178;2023-03-04T02:50:38;99386.31;;;14.78;40.79
62164;BME280;48149;51.132;7.178;2023-03-04T02:53:04;99391.78;;;16.08;38.84
62164;BME280;48149;51.132;7.178;2023-03-04T02:55:30;99392.34;;;15.98;38.97
62164;BME280;48149;51.132;7.178;2023-03-04T02:57:56;99392.34;;;16.33;38.87
62164;BME280;48149;51.132;7.178;2023-03-04T03:00:21;99392.63;;;15.25;40.51
62164;BME280;48149;51.132;7.178;2023-03-04T03:02:46;99383.97;;;15.78;38.66
62164;BME280;48149;51.132;7.178;2023-03-04T03:05:11;99384.66;;;15.96;38.80
62164;BME280;48149;51.132;7.178;2023-03-04T03:07:37;99387.06;;;15.45;40.35
62164;BME280;48149;51.132;7.178;2023-03-04T03:10:02;99381.91;;;15.91;39.39
62164;BME280;48149;51.132;7.178;2023-03-04T03:12:28;99388.47;;;16.00;38.94
62164;BME280;48149;51.132;7.178;2023-03-04T03:14:53;99380.25;;;15.67;38.64
62164;BME280;48149;51.132;7.178;2023-03-04T03:17:18;99383.94;;;16.59;38.57
62164;BME280;48149;51.132;7.178;2023-03-04T03:19:43;99379.63;;;16.07;38.87
62164;BME280;48149;51.132;7.178;2023-03-04T03:22:08;99370.50;;;16.37;38.49
62164;BME280;48149;51.132;7.178;2023-03-04T03:24:34;99377.75;;;16.30;38.69
62164;BME280;48149;51.132;7.178;2023-03-04T03:26:59;99368.38;;;16.74;38.14
62164;BME280;48149;51.132;7.178;2023-03-04T03:29:24;99366.69;;;14.92;39.94
62164;BME280;48149;51.132;7.178;2023-03-04T03:31:49;99367.31;;;16.12;38.72
62164;BME280;48149;51.132;7.178;2023-03-04T03:34:15;99366.50;;;15.35;40.31
62164;BME280;48149;51.132;7.178;2023-03-04T03:36:40;99363.66;;;15.37;39.82
62164;BME280;48149;51.132;7.178;2023-03-04T03:39:05;99364.63;;;14.22;41.55
62164;BME280;48149;51.132;7.178;2023-03-04T03:41:30;99371.34;;;15.09;42.15
62164;BME280;48149;51.132;7.178;2023-03-04T03:43:55;99368.50;;;13.76;43.77
62164;BME280;48149;51.132;7.178;2023-03-04T03:46:21;99372.94;;;15.39;41.67
62164;BME280;48149;51.132;7.178;2023-03-04T03:48:46;99368.66;;;14.97;40.71
62164;BME280;48149;51.132;7.178;2023-03-04T03:51:11;99374.06;;;14.11;43.55
62164;BME280;48149;51.132;7.178;2023-03-04T03:53:36;99377.78;;;13.23;44.88
62164;BME280;48149;51.132;7.178;2023-03-04T03:56:02;99363.50;;;14.72;41.61
62164;BME280;48149;51.132;7.178;2023-03-04T03:58:27;99358.41;;;12.73;45.57
62164;BME280;48149;51.132;7.178;2023-03-04T04:00:53;99362.75;;;13.61;43.62
62164;BME280;48149;51.132;7.178;2023-03-04T04:03:18;99369.91;;;13.79;43.23
62164;BME280;48149;51.132;7.178;2023-03-04T04:05:43;99360.38;;;16.46;39.99
62164;BME280;48149;51.132;7.178;2023-03-04T04:08:11;99369.63;;;12.93;42.98
62164;BME280;48149;51.132;7.178;2023-03-04T04:10:36;99360.94;;;15.14;42.75
62164;BME280;48149;51.132;7.178;2023-03-04T04:13:02;99361.91;;;14.35;42.12
62164;BME280;48149;51.132;7.178;2023-03-04T04:15:27;99363.91;;;13.03;45.22
62164;BME280;48149;51.132;7.178;2023-03-04T04:17:52;99360.22;;;13.48;44.66
62164;BME280;48149;51.132;7.178;2023-03-04T04:20:17;99368.13;;;13.48;44.38
62164;BME280;48149;51.132;7.178;2023-03-04T04:22:42;99357.91;;;14.08;44.96
62164;BME280;48149;51.132;7.178;2023-03-04T04:25:08;99365.31;;;13.43;44.52
62164;BME280;48149;51.132;7.178;2023-03-04T04:27:34;99360.56;;;14.44;42.33
62164;BME280;48149;51.132;7.178;2023-03-04T04:29:59;99366.69;;;13.77;43.47
62164;BME280;48149;51.132;7.178;2023-03-04T04:32:25;99367.59;;;14.86;42.02
62164;BME280;48149;51.132;7.178;2023-03-04T04:34:50;99356.53;;;14.23;42.42
62164;BME280;48149;51.132;7.178;2023-03-04T04:37:15;99357.25;;;15.03;42.32
62164;BME280;48149;51.132;7.178;2023-03-04T04:39:40;99359.94;;;14.49;42.80
62164;BME280;48149;51.132;7.178;2023-03-04T04:42:06;99359.06;;;13.38;45.56
62164;BME280;48149;51.132;7.178;2023-03-04T04:44:31;99358.28;;;14.11;44.89
62164;BME280;48149;51.132;7.178;2023-03-04T04:46:56;99351.69;;;14.02;41.36
62164;BME280;48149;51.132;7.178;2023-03-04T04:49:21;99361.53;;;13.88;42.57
62164;BME280;48149;51.132;7.178;2023-03-04T04:51:46;99367.84;;;13.25;43.24
62164;BME280;48149;51.132;7.178;2023-03-04T04:54:12;99367.03;;;13.80;42.96
62164;BME280;48149;51.132;7.178;2023-03-04T04:56:37;99357.97;;;14.19;45.51
62164;BME280;48149;51.132;7.178;2023-03-04T04:59:03;99358.38;;;14.59;42.94
62164;BME280;48149;51.132;7.178;2023-03-04T05:01:29;99360.53;;;14.99;41.79
62164;BME280;48149;51.132;7.178;2023-03-04T05:03:54;99358.72;;;15.40;39.80
62164;BME280;48149;51.132;7.178;2023-03-04T05:06:20;99357.22;;;14.37;42.03
62164;BME280;48149;51.132;7.178;2023-03-04T05:08:46;99356.34;;;14.00;43.38
62164;BME280;48149;51.132;7.178;2023-03-04T05:11:11;99358.84;;;14.13;40.63
62164;BME280;48149;51.132;7.178;2023-03-04T05:13:37;99362.56;;;14.67;40.74
62164;BME280;48149;51.132;7.178;2023-03-04T05:16:02;99361.78;;;15.67;39.23
62164;BME280;48149;51.132;7.178;2023-03-04T05:18:28;99363.81;;;14.46;42.34
62164;BME280;48149;51.132;7.178;2023-03-04T05:20:53;99363.75;;;13.35;43.85
62164;BME280;48149;51.132;7.178;2023-03-04T05:23:19;99363.44;;;14.00;42.43
62164;BME280;48149;51.132;7.178;2023-03-04T05:25:44;99355.81;;;15.19;40.91
62164;BME280;48149;51.132;7.178;2023-03-04T05:28:10;99354.81;;;16.19;38.57
62164;BME280;48149;51.132;7.178;2023-03-04T05:30:37;99359.88;;;14.55;41.62
62164;BME280;48149;51.132;7.178;2023-03-04T05:33:02;99366.97;;;13.87;43.10
62164;BME280;48149;51.132;7.178;2023-03-04T05:35:27;99361.66;;;15.32;41.78
62164;BME280;48149;51.132;7.178;2023-03-04T05:37:52;99362.50;;;14.37;41.05
62164;BME280;48149;51.132;7.178;2023-03-04T05:40:18;99361.09;;;12.53;46.84
62164;BME280;48149;51.132;7.178;2023-03-04T05:42:44;99359.03;;;12.62;46.15
62164;BME280;48149;51.132;7.178;2023-03-04T05:45:09;99363.34;;;12.43;47.50
62164;BME280;48149;51.132;7.178;2023-03-04T05:47:34;99359.75;;;14.80;43.55
62164;BME280;48149;51.132;7.178;2023-03-04T05:50:00;99365.84;;;12.82;46.13
62164;BME280;48149;51.132;7.178;2023-03-04T05:52:25;99374.34;;;13.22;46.99
62164;BME280;48149;51.132;7.178;2023-03-04T05:54:50;99373.91;;;13.81;45.72
62164;BME280;48149;51.132;7.178;2023-03-04T05:57:15;99374.41;;;13.72;43.30
62164;BME280;48149;51.132;7.178;2023-03-04T05:59:40;99368.72;;;12.68;46.36
62164;BME280;48149;51.132;7.178;2023-03-04T06:02:06;99368.88;;;14.23;45.10
62164;BME280;48149;51.132;7.178;2023-03-04T06:04:31;99363.22;;;14.80;40.64
62164;BME280;48149;51.132;7.178;2023-03-04T06:06:56;99366.91;;;14.91;41.76
62164;BME280;48149;51.132;7.178;2023-03-04T06:09:21;99368.22;;;16.18;39.56
62164;BME280;48149;51.132;7.178;2023-03-04T06:11:46;99368.34;;;15.99;40.06
62164;BME280;48149;51.132;7.178;2023-03-04T06:14:12;99376.28;;;16.11;38.49
62164;BME280;48149;51.132;7.178;2023-03-04T06:16:37;99372.19;;;14.91;41.31
62164;BME280;48149;51.132;7.178;2023-03-04T06:19:02;99380.44;;;16.07;40.45
62164;BME280;48149;51.132;7.178;2023-03-04T06:21:27;99385.28;;;13.51;44.56
62164;BME280;48149;51.132;7.178;2023-03-04T06:23:53;99380.84;;;14.01;44.55
62164;BME280;48149;51.132;7.178;2023-03-04T06:26:18;99380.47;;;13.72;45.88
62164;BME280;48149;51.132;7.178;2023-03-04T06:28:43;99383.50;;;13.07;46.97
62164;BME280;48149;51.132;7.178;2023-03-04T06:31:08;99388.66;;;13.64;46.04
62164;BME280;48149;51.132;7.178;2023-03-04T06:33:34;99384.41;;;12.88;44.30
62164;BME280;48149;51.132;7.178;2023-03-04T06:35:59;99387.09;;;12.68;48.58
62164;BME280;48149;51.132;7.178;2023-03-04T06:38:24;99393.78;;;14.81;43.68
62164;BME280;48149;51.132;7.178;2023-03-04T06:40:50;99401.25;;;15.51;41.36
62164;BME280;48149;51.132;7.178;2023-03-04T06:43:15;99392.81;;;15.12;42.29
62164;BME280;48149;51.132;7.178;2023-03-04T06:45:40;99401.06;;;14.86;43.11
62164;BME280;48149;51.132;7.178;2023-03-04T06:48:06;99404.91;;;13.55;45.29
62164;BME280;48149;51.132;7.178;2023-03-04T06:50:31;99407.38;;;13.12;49.97
62164;BME280;48149;51.132;7.178;2023-03-04T06:52:56;99408.94;;;12.62;46.64
62164;BME280;48149;51.132;7.178;2023-03-04T06:55:21;99413.72;;;13.92;45.48
62164;BME280;48149;51.132;7.178;2023-03-04T06:57:47;99411.00;;;15.32;42.25
62164;BME280;48149;51.132;7.178;2023-03-04T07:00:12;99403.88;;;15.51;42.03
62164;BME280;48149;51.132;7.178;2023-03-04T07:02:37;99403.97;;;14.96;44.17
62164;BME280;48149;51.132;7.178;2023-03-04T07:05:03;99408.38;;;13.80;44.52
62164;BME280;48149;51.132;7.178;2023-03-04T07:07:28;99404.44;;;15.53;40.79
62164;BME280;48149;51.132;7.178;2023-03-04T07:09:53;99411.75;;;14.12;44.80
62164;BME280;48149;51.132;7.178;2023-03-04T07:12:18;99413.56;;;14.36;45.53
62164;BME280;48149;51.132;7.178;2023-03-04T07:14:44;99417.63;;;13.26;46.35
62164;BME280;48149;51.132;7.178;2023-03-04T07:17:09;99414.16;;;14.31;44.76
62164;BME280;48149;51.132;7.178;2023-03-04T07:19:34;99410.59;;;16.46;39.76
62164;BME280;48149;51.132;7.178;2023-03-04T07:21:59;99413.41;;;14.85;42.34
62164;BME280;48149;51.132;7.178;2023-03-04T07:24:25;99412.16;;;15.66;39.24
62164;BME280;48149;51.132;7.178;2023-03-04T07:26:50;99405.59;;;12.42;45.63
62164;BME280;48149;51.132;7.178;2023-03-04T07:29:15;99425.78;;;13.43;44.23
62164;BME280;48149;51.132;7.178;2023-03-04T07:31:40;99416.81;;;13.26;45.17
62164;BME280;48149;51.132;7.178;2023-03-04T07:34:06;99421.34;;;12.99;45.83
62164;BME280;48149;51.132;7.178;2023-03-04T07:36:32;99420.41;;;12.80;48.20
62164;BME280;48149;51.132;7.178;2023-03-04T07:38:59;99427.66;;;15.14;43.19
62164;BME280;48149;51.132;7.178;2023-03-04T07:41:25;99421.47;;;14.54;42.76
62164;BME280;48149;51.132;7.178;2023-03-04T07:43:51;99418.38;;;15.12;42.47
62164;BME280;48149;51.132;7.178;2023-03-04T07:46:16;99421.91;;;14.33;43.87
62164;BME280;48149;51.132;7.178;2023-03-04T07:48:42;99434.00;;;13.60;43.78
62164;BME280;48149;51.132;7.178;2023-03-04T07:51:11;99424.00;;;15.15;42.60
62164;BME280;48149;51.132;7.178;2023-03-04T07:53:37;99429.25;;;14.67;43.71
62164;BME280;48149;51.132;7.178;2023-03-04T07:56:03;99429.38;;;15.38;41.60
62164;BME280;48149;51.132;7.178;2023-03-04T07:58:29;99431.41;;;15.07;42.43
62164;BME280;48149;51.132;7.178;2023-03-04T08:00:54;99427.72;;;13.29;44.81
62164;BME280;48149;51.132;7.178;2023-03-04T08:03:19;99429.38;;;13.86;44.17
62164;BME280;48149;51.132;7.178;2023-03-04T08:05:45;99431.25;;;14.04;46.07
62164;BME280;48149;51.132;7.178;2023-03-04T08:08:10;99438.66;;;13.89;44.80
62164;BME280;48149;51.132;7.178;2023-03-04T08:10:35;99432.09;;;16.49;40.89
62164;BME280;48149;51.132;7.178;2023-03-04T08:13:03;99434.06;;;14.88;41.65
62164;BME280;48149;51.132;7.178;2023-03-04T08:15:29;99424.97;;;15.03;42.74
62164;BME280;48149;51.132;7.178;2023-03-04T08:17:56;99417.38;;;16.53;39.85
62164;BME280;48149;51.132;7.178;2023-03-04T08:20:21;99433.03;;;15.67;40.62
62164;BME280;48149;51.132;7.178;2023-03-04T08:22:47;99432.53;;;14.63;44.47
62164;BME280;48149;51.132;7.178;2023-03-04T08:25:12;99435.47;;;14.30;44.89
62164;BME280;48149;51.132;7.178;2023-03-04T08:27:37;99438.38;;;14.22;45.89
62164;BME280;48149;51.132;7.178;2023-03-04T08:30:05;99433.81;;;16.44;41.60
62164;BME280;48149;51.132;7.178;2023-03-04T08:32:31;99435.00;;;14.39;44.29
62164;BME280;48149;51.132;7.178;2023-03-04T08:34:56;99437.09;;;14.06;46.52
62164;BME280;48149;51.132;7.178;2023-03-04T08:37:22;99437.81;;;16.00;43.70
62164;BME280;48149;51.132;7.178;2023-03-04T08:39:49;99442.06;;;16.01;41.72
62164;BME280;48149;51.132;7.178;2023-03-04T08:42:14;99448.78;;;15.44;44.48
62164;BME280;48149;51.132;7.178;2023-03-04T08:44:39;99446.34;;;16.25;43.31
62164;BME280;48149;51.132;7.178;2023-03-04T08:47:05;99439.91;;;15.09;43.31
62164;BME280;48149;51.132;7.178;2023-03-04T08:49:33;99448.19;;;16.48;42.59
62164;BME280;48149;51.132;7.178;2023-03-04T08:51:58;99448.22;;;15.72;42.14
62164;BME280;48149;51.132;7.178;2023-03-04T08:54:23;99448.91;;;14.22;44.51
62164;BME280;48149;51.132;7.178;2023-03-04T08:56:49;99456.81;;;14.22;44.63
62164;BME280;48149;51.132;7.178;2023-03-04T08:59:14;99447.69;;;14.67;45.34
62164;BME280;48149;51.132;7.178;2023-03-04T09:01:39;99443.81;;;16.53;44.85
62164;BME280;48149;51.132;7.178;2023-03-04T09:04:04;99442.25;;;18.05;39.52
62164;BME280;48149;51.132;7.178;2023-03-04T09:06:29;99443.22;;;17.26;39.35
62164;BME280;48149;51.132;7.178;2023-03-04T09:08:55;99441.94;;;15.96;42.70
62164;BME280;48149;51.132;7.178;2023-03-04T09:11:20;99436.34;;;16.62;41.07
62164;BME280;48149;51.132;7.178;2023-03-04T09:13:45;99431.28;;;15.50;42.81
62164;BME280;48149;51.132;7.178;2023-03-04T09:16:11;99442.09;;;16.71;40.99
62164;BME280;48149;51.132;7.178;2023-03-04T09:18:37;99436.38;;;17.42;39.82
62164;BME280;48149;51.132;7.178;2023-03-04T09:21:03;99438.09;;;15.39;43.66
62164;BME280;48149;51.132;7.178;2023-03-04T09:23:35;99435.28;;;18.71;38.19
62164;BME280;48149;51.132;7.178;2023-03-04T09:26:01;99435.09;;;14.69;41.30
62164;BME280;48149;51.132;7.178;2023-03-04T09:28:36;99437.19;;;17.02;40.08
62164;BME280;48149;51.132;7.178;2023-03-04T09:31:01;99439.75;;;17.54;40.39
62164;BME280;48149;51.132;7.178;2023-03-04T09:33:34;99438.06;;;16.68;39.83
62164;BME280;48149;51.132;7.178;2023-03-04T09:35:59;99440.56;;;15.82;43.82
62164;BME280;48149;51.132;7.178;2023-03-04T09:38:25;99443.22;;;15.93;42.78
62164;BME280;48149;51.132;7.178;2023-03-04T09:40:51;99430.13;;;15.27;41.41
62164;BME280;48149;51.132;7.178;2023-03-04T09:43:21;99435.97;;;17.50;40.16
62164;BME280;48149;51.132;7.178;2023-03-04T09:45:55;99437.41;;;15.62;41.16
62164;BME280;48149;51.132;7.178;2023-03-04T09:48:22;99438.00;;;17.31;40.57
62164;BME280;48149;51.132;7.178;2023-03-04T09:53:39;99438.13;;;15.21;43.72
62164;BME280;48149;51.132;7.178;2023-03-04T09:56:08;99432.78;;;16.10;43.60
62164;BME280;48149;51.132;7.178;2023-03-04T09:58:42;99426.19;;;16.94;40.01
62164;BME280;48149;51.132;7.178;2023-03-04T10:03:54;99431.19;;;15.56;45.71
62164;BME280;48149;51.132;7.178;2023-03-04T10:06:22;99440.38;;;16.41;43.22
62164;BME280;48149;51.132;7.178;2023-03-04T10:09:04;99435.66;;;16.32;42.93
62164;BME280;48149;51.132;7.178;2023-03-04T10:14:10;99432.34;;;16.48;44.32
62164;BME280;48149;51.132;7.178;2023-03-04T10:16:44;99440.00;;;16.15;47.00
62164;BME280;48149;51.132;7.178;2023-03-04T10:21:38;99433.72;;;16.16;47.73
62164;BME280;48149;51.132;7.178;2023-03-04T10:24:12;99433.09;;;15.90;48.91
62164;BME280;48149;51.132;7.178;2023-03-04T10:26:39;99443.88;;;14.45;53.64
62164;BME280;48149;51.132;7.178;2023-03-04T10:29:07;99434.81;;;14.95;54.32
62164;BME280;48149;51.132;7.178;2023-03-04T10:31:34;99432.91;;;17.13;48.18
62164;BME280;48149;51.132;7.178;2023-03-04T10:34:01;99435.09;;;16.07;49.49
62164;BME280;48149;51.132;7.178;2023-03-04T10:38:59;99422.47;;;15.08;51.91
62164;BME280;48149;51.132;7.178;2023-03-04T10:41:26;99423.34;;;16.72;48.61
62164;BME280;48149;51.132;7.178;2023-03-04T10:46:30;99424.41;;;17.84;44.74
62164;BME280;48149;51.132;7.178;2023-03-04T10:48:55;99417.38;;;17.45;44.56
62164;BME280;48149;51.132;7.178;2023-03-04T10:51:23;99407.34;;;15.74;49.42
62164;BME280;48149;51.132;7.178;2023-03-04T10:53:49;99422.97;;;17.93;44.26
62164;BME280;48149;51.132;7.178;2023-03-04T10:56:33;99414.66;;;18.40;44.31
62164;BME280;48149;51.132;7.178;2023-03-04T11:01:50;99415.41;;;15.20;47.96
62164;BME280;48149;51.132;7.178;2023-03-04T11:04:18;99417.16;;;16.43;48.58
62164;BME280;48149;51.132;7.178;2023-03-04T11:06:43;99411.75;;;17.86;45.70
62164;BME280;48149;51.132;7.178;2023-03-04T11:09:19;99399.50;;;14.97;53.73
62164;BME280;48149;51.132;7.178;2023-03-04T11:11:45;99399.50;;;17.52;43.85
62164;BME280;48149;51.132;7.178;2023-03-04T11:14:16;99399.94;;;16.92;49.23
62164;BME280;48149;51.132;7.178;2023-03-04T11:16:50;99403.06;;;18.07;43.52
62164;BME280;48149;51.132;7.178;2023-03-04T11:19:16;99407.41;;;16.67;44.82
62164;BME280;48149;51.132;7.178;2023-03-04T11:21:43;99404.94;;;16.77;48.71
62164;BME280;48149;51.132;7.178;2023-03-04T11:24:18;99400.06;;;16.58;47.14
62164;BME280;48149;51.132;7.178;2023-03-04T11:26:49;99398.63;;;16.78;45.57
62164;BME280;48149;51.132;7.178;2023-03-04T11:32:04;99390.59;;;16.50;47.70
62164;BME280;48149;51.132;7.178;2023-03-04T11:34:38;99391.28;;;16.45;48.29
62164;BME280;48149;51.132;7.178;2023-03-04T11:37:27;99388.69;;;16.22;49.42
62164;BME280;48149;51.132;7.178;2023-03-04T11:39:51;99390.56;;;14.98;49.27
62164;BME280;48149;51.132;7.178;2023-03-04T11:42:36;99388.34;;;17.22;46.51
62164;BME280;48149;51.132;7.178;2023-03-04T11:45:49;99387.84;;;17.53;47.99
62164;BME280;48149;51.132;7.178;2023-03-04T11:48:03;99387.03;;;15.33;50.83
62164;BME280;48149;51.132;7.178;2023-03-04T11:53:18;99383.72;;;17.74;46.09
62164;BME280;48149;51.132;7.178;2023-03-04T12:03:49;99372.56;;;16.59;44.77
62164;BME280;48149;51.132;7.178;2023-03-04T12:11:38;99360.78;;;15.91;48.59
62164;BME280;48149;51.132;7.178;2023-03-04T12:14:15;99354.03;;;17.55;44.16
62164;BME280;48149;51.132;7.178;2023-03-04T12:17:06;99362.94;;;17.99;46.35
62164;BME280;48149;51.132;7.178;2023-03-04T12:19:51;99344.19;;;18.44;42.21
62164;BME280;48149;51.132;7.178;2023-03-04T12:22:25;99333.16;;;18.30;42.41
62164;BME280;48149;51.132;7.178;2023-03-04T12:38:17;99315.97;;;17.94;40.61
62164;BME280;48149;51.132;7.178;2023-03-04T12:46:03;99313.53;;;14.95;47.24
62164;BME280;48149;51.132;7.178;2023-03-04T12:48:34;99318.00;;;16.41;46.02
62164;BME280;48149;51.132;7.178;2023-03-04T12:55:57;99306.78;;;16.11;47.37
62164;BME280;48149;51.132;7.178;2023-03-04T12:58:24;99305.88;;;18.13;44.02
62164;BME280;48149;51.132;7.178;2023-03-04T13:00:59;99310.19;;;17.47;41.78
62164;BME280;48149;51.132;7.178;2023-03-04T13:06:18;99304.28;;;16.95;45.00
62164;BME280;48149;51.132;7.178;2023-03-04T13:11:37;99302.72;;;17.78;45.29
62164;BME280;48149;51.132;7.178;2023-03-04T13:19:40;99277.66;;;18.45;41.70
62164;BME280;48149;51.132;7.178;2023-03-04T13:21:49;99280.66;;;19.61;39.45
62164;BME280;48149;51.132;7.178;2023-03-04T13:27:43;99279.88;;;19.02;41.13
62164;BME280;48149;51.132;7.178;2023-03-04T13:29:47;99272.72;;;17.89;41.55
62164;BME280;48149;51.132;7.178;2023-03-04T13:32:13;99268.22;;;17.89;43.08
62164;BME280;48149;51.132;7.178;2023-03-04T13:34:58;99270.66;;;17.74;43.18
62164;BME280;48149;51.132;7.178;2023-03-04T13:42:44;99263.56;;;17.96;44.17
62164;BME280;48149;51.132;7.178;2023-03-04T13:45:29;99269.97;;;16.44;46.39
62164;BME280;48149;51.132;7.178;2023-03-04T13:47:54;99272.75;;;17.55;43.48
62164;BME280;48149;51.132;7.178;2023-03-04T13:52:45;99270.31;;;15.84;47.39
62164;BME280;48149;51.132;7.178;2023-03-04T13:57:54;99264.56;;;17.24;46.26
62164;BME280;48149;51.132;7.178;2023-03-04T14:00:20;99258.47;;;16.10;49.55
62164;BME280;48149;51.132;7.178;2023-03-04T14:02:45;99263.84;;;16.83;51.22
62164;BME280;48149;51.132;7.178;2023-03-04T14:05:10;99257.66;;;15.28;54.42
62164;BME280;48149;51.132;7.178;2023-03-04T14:07:36;99264.47;;;16.34;52.00
62164;BME280;48149;51.132;7.178;2023-03-04T14:10:03;99248.81;;;16.44;51.00
62164;BME280;48149;51.132;7.178;2023-03-04T14:12:33;99250.28;;;16.63;51.61
62164;BME280;48149;51.132;7.178;2023-03-04T14:15:00;99249.66;;;16.33;51.70
62164;BME280;48149;51.132;7.178;2023-03-04T14:17:27;99243.16;;;16.64;49.87
62164;BME280;48149;51.132;7.178;2023-03-04T14:19:53;99240.75;;;18.60;47.30
62164;BME280;48149;51.132;7.178;2023-03-04T14:22:20;99240.19;;;18.58;44.71
62164;BME280;48149;51.132;7.178;2023-03-04T14:25:00;99243.88;;;18.57;46.39
62164;BME280;48149;51.132;7.178;2023-03-04T14:27:26;99235.66;;;20.58;41.80